Time;durP1;ratioP1;P1;durP2;ratioP2;P2;SDS_P1;SDS_P2;PMS_P1;PMS_P2;Temp;Humidity;BMP_temperature;BMP_pressure;BME280_temperature;BME280_humidity;BME280_pressure;Samples;Min_cycle;Max_cycle;Signal;HPM_P1;HPM_P2
2023/06/10 00:00:45;;;;;;;9.13;6.80;;;;;;;22.24;54.33;101273.19;5010684;28;20149;-86
2023/06/10 00:03:10;;;;;;;10.73;6.85;;;;;;;22.20;54.14;101280.75;5006369;28;20108;-86
2023/06/10 00:05:38;;;;;;;7.80;6.95;;;;;;;22.19;54.13;101280.94;5008991;28;20026;-86
2023/06/10 00:08:07;;;;;;;9.93;6.80;;;;;;;22.12;54.46;101270.09;5010636;28;20029;-86
2023/06/10 00:10:35;;;;;;;7.68;6.60;;;;;;;22.10;54.58;101264.09;5009617;28;20080;-86
2023/06/10 00:13:02;;;;;;;8.35;6.50;;;;;;;22.09;54.10;101275.81;5007208;28;20018;-86
2023/06/10 00:15:27;;;;;;;9.43;6.60;;;;;;;22.08;54.48;101284.03;5008721;28;20033;-86
2023/06/10 00:17:54;;;;;;;8.27;6.72;;;;;;;22.01;54.58;101277.66;5009037;28;20022;-86
2023/06/10 00:20:23;;;;;;;9.07;6.57;;;;;;;21.98;54.82;101278.03;5003600;28;20026;-86
2023/06/10 00:22:52;;;;;;;10.50;6.97;;;;;;;21.97;54.37;101281.72;5018708;28;20034;-86
2023/06/10 00:25:18;;;;;;;8.63;7.13;;;;;;;21.93;54.77;101285.75;5010208;28;20026;-86
2023/06/10 00:27:43;;;;;;;8.32;6.70;;;;;;;21.90;54.87;101292.31;5029397;28;20032;-86
2023/06/10 00:30:10;;;;;;;7.68;6.80;;;;;;;21.83;54.92;101286.84;5025683;28;20083;-86
2023/06/10 00:32:36;;;;;;;8.70;6.85;;;;;;;21.82;55.15;101290.53;5009312;28;20030;-86
2023/06/10 00:35:03;;;;;;;9.30;6.97;;;;;;;21.75;55.38;101286.88;5010226;28;20021;-86
2023/06/10 00:37:34;;;;;;;8.73;6.55;;;;;;;21.67;55.40;101286.94;5004345;28;20021;-85
2023/06/10 00:40:03;;;;;;;10.52;6.90;;;;;;;21.61;55.96;101292.97;5024409;28;20446;-85
2023/06/10 00:42:28;;;;;;;10.32;7.45;;;;;;;21.60;55.91;101285.94;5007311;28;20689;-86
2023/06/10 00:44:54;;;;;;;9.38;7.15;;;;;;;21.56;56.03;101284.63;5007375;28;20153;-86
2023/06/10 00:47:20;;;;;;;9.27;6.90;;;;;;;21.51;56.43;101290.50;5009533;28;20053;-86
2023/06/10 00:49:48;;;;;;;9.80;7.60;;;;;;;21.46;56.58;101294.72;5009420;28;20101;-86
2023/06/10 00:52:16;;;;;;;8.95;7.22;;;;;;;21.40;56.81;101295.41;5006653;28;20504;-85
2023/06/10 00:54:41;;;;;;;10.05;7.18;;;;;;;21.38;57.13;101294.75;4999025;28;20037;-85
2023/06/10 00:57:07;;;;;;;7.88;7.07;;;;;;;21.27;57.27;101286.09;4997529;28;20513;-85
2023/06/10 00:59:34;;;;;;;9.20;7.03;;;;;;;21.20;57.67;101285.03;5007010;28;20030;-85
2023/06/10 01:02:03;;;;;;;8.50;7.45;;;;;;;21.22;57.87;101285.75;5007828;28;20029;-85
2023/06/10 01:04:29;;;;;;;13.23;7.85;;;;;;;21.12;57.84;101279.72;5006717;28;20025;-85
2023/06/10 01:07:21;;;;;;;8.15;7.35;;;;;;;21.07;57.99;101283.94;5005380;28;20142;-85
2023/06/10 01:10:02;;;;;;;11.98;7.85;;;;;;;21.00;58.36;101288.28;4995635;28;20147;-85
2023/06/10 01:12:39;;;;;;;9.98;7.53;;;;;;;20.95;58.43;101292.31;4989733;28;20360;-85
2023/06/10 01:15:05;;;;;;;8.50;7.60;;;;;;;20.89;58.78;101284.97;5003285;28;20044;-85
2023/06/10 01:17:31;;;;;;;11.20;7.80;;;;;;;20.85;58.24;101288.16;5009829;28;20029;-86
2023/06/10 01:19:57;;;;;;;9.20;7.57;;;;;;;20.78;59.09;101284.47;5009395;28;20057;-86
2023/06/10 01:22:32;;;;;;;13.05;7.93;;;;;;;20.71;59.14;101296.84;5013664;28;20072;-86
2023/06/10 01:24:58;;;;;;;12.15;8.13;;;;;;;20.67;59.18;101295.53;5010515;28;20022;-87
2023/06/10 01:27:29;;;;;;;12.50;8.23;;;;;;;20.58;59.83;101295.53;4998169;28;20034;-86
2023/06/10 01:30:07;;;;;;;8.65;7.75;;;;;;;20.54;60.19;101291.53;5012269;28;20034;-86
2023/06/10 01:32:54;;;;;;;9.13;8.02;;;;;;;20.49;59.42;101296.53;5012625;28;20056;-85
2023/06/10 01:35:23;;;;;;;9.45;7.85;;;;;;;20.38;60.20;101293.31;5024660;28;20030;-87
2023/06/10 01:37:54;;;;;;;10.05;8.30;;;;;;;20.29;60.73;101295.97;5013433;28;20030;-87
2023/06/10 01:40:20;;;;;;;11.98;8.75;;;;;;;20.24;60.76;101292.13;5012932;28;20903;-87
2023/06/10 01:42:46;;;;;;;10.80;8.55;;;;;;;20.18;60.61;101292.81;5007944;28;20021;-87
2023/06/10 01:45:12;;;;;;;9.98;8.05;;;;;;;20.12;60.96;101296.13;5010057;28;20030;-86
2023/06/10 01:47:37;;;;;;;11.52;8.88;;;;;;;20.08;61.17;101297.47;5011661;28;20057;-86
2023/06/10 01:50:03;;;;;;;12.88;8.90;;;;;;;19.99;61.12;101294.75;5012250;28;20525;-87
2023/06/10 01:52:28;;;;;;;10.73;8.55;;;;;;;19.97;61.38;101298.59;5013276;28;20022;-86
2023/06/10 01:54:54;;;;;;;11.25;9.20;;;;;;;19.89;61.64;101294.06;5012470;28;20029;-87
2023/06/10 01:57:20;;;;;;;13.00;9.05;;;;;;;19.82;61.84;101298.41;5032231;28;20041;-87
2023/06/10 01:59:46;;;;;;;11.13;9.15;;;;;;;19.78;61.85;101301.56;5002471;28;20867;-86
2023/06/10 02:02:11;;;;;;;10.57;9.18;;;;;;;19.75;62.04;101301.88;5016871;28;20386;-87
2023/06/10 02:04:37;;;;;;;11.07;9.10;;;;;;;19.68;62.17;101307.03;5011961;28;20030;-86
2023/06/10 02:07:04;;;;;;;10.57;9.00;;;;;;;19.66;62.29;101306.38;5012430;28;20057;-85
2023/06/10 02:09:34;;;;;;;10.10;9.10;;;;;;;19.57;62.59;101307.31;5010824;28;20367;-86
2023/06/10 02:12:04;;;;;;;10.38;9.23;;;;;;;19.58;62.65;101306.31;5012026;28;20034;-86
2023/06/10 02:14:32;;;;;;;12.07;9.40;;;;;;;19.52;62.63;101306.91;5009854;28;20509;-86
2023/06/10 02:16:57;;;;;;;10.57;9.45;;;;;;;19.46;63.01;101304.91;5001361;28;20025;-86
2023/06/10 02:19:25;;;;;;;10.57;9.32;;;;;;;19.37;63.46;101304.88;5012724;28;20036;-86
2023/06/10 02:21:50;;;;;;;10.40;9.15;;;;;;;19.36;63.86;101302.34;5011785;28;20026;-86
2023/06/10 02:24:16;;;;;;;13.15;9.55;;;;;;;19.39;63.56;101307.38;5011542;28;20100;-86
2023/06/10 02:26:41;;;;;;;10.38;9.05;;;;;;;19.33;63.83;101311.53;5014555;28;20072;-86
2023/06/10 02:29:06;;;;;;;12.63;9.25;;;;;;;19.29;64.19;101314.66;5012429;28;20053;-87
2023/06/10 02:31:35;;;;;;;10.70;9.25;;;;;;;19.24;64.31;101319.66;5004408;28;20113;-86
2023/06/10 02:34:01;;;;;;;11.15;9.93;;;;;;;19.18;64.52;101312.25;5010520;28;20026;-87
2023/06/10 02:36:27;;;;;;;21.88;10.18;;;;;;;19.13;65.11;101315.38;5012941;28;20057;-87
2023/06/10 02:38:53;;;;;;;11.93;10.50;;;;;;;19.05;65.27;101316.19;5011361;28;20089;-87
2023/06/10 02:41:19;;;;;;;11.48;10.27;;;;;;;19.00;65.60;101313.16;5011679;28;20063;-87
2023/06/10 02:43:44;;;;;;;12.75;10.63;;;;;;;18.98;65.86;101316.97;5010949;28;20033;-87
2023/06/10 02:46:10;;;;;;;12.07;10.10;;;;;;;18.95;65.96;101311.94;5008389;28;20410;-87
2023/06/10 02:48:43;;;;;;;12.75;11.10;;;;;;;18.88;66.17;101308.25;5004465;28;20006;-87
2023/06/10 02:51:10;;;;;;;11.55;10.13;;;;;;;18.85;66.85;101313.88;5007460;28;20060;-86
2023/06/10 02:53:35;;;;;;;13.60;11.20;;;;;;;18.81;66.71;101316.00;5011317;28;20022;-86
2023/06/10 02:56:00;;;;;;;12.45;10.65;;;;;;;18.75;67.29;101309.47;5015418;28;20176;-86
2023/06/10 02:58:26;;;;;;;12.93;11.63;;;;;;;18.72;67.87;101309.78;5011290;28;20040;-85
2023/06/10 03:00:51;;;;;;;13.95;11.35;;;;;;;18.69;67.71;101310.09;5010995;28;20021;-86
2023/06/10 03:03:17;;;;;;;12.52;10.95;;;;;;;18.65;68.08;101319.38;5010551;28;20033;-86
2023/06/10 03:05:42;;;;;;;15.93;11.50;;;;;;;18.62;68.21;101314.38;4997461;28;20026;-85
2023/06/10 03:08:09;;;;;;;12.50;11.27;;;;;;;18.59;68.54;101317.31;5017017;28;20904;-85
2023/06/10 03:10:35;;;;;;;13.10;11.48;;;;;;;18.59;68.55;101317.31;5009918;28;20030;-86
2023/06/10 03:13:00;;;;;;;12.77;11.48;;;;;;;18.56;68.75;101314.13;5010202;28;20033;-85
2023/06/10 03:15:28;;;;;;;12.85;11.18;;;;;;;18.51;68.93;101324.41;5012532;28;20117;-86
2023/06/10 03:17:54;;;;;;;13.82;11.57;;;;;;;18.48;69.35;101323.72;5009142;28;20390;-85
2023/06/10 03:20:21;;;;;;;13.77;11.05;;;;;;;18.44;69.63;101322.34;5007510;28;20042;-85
2023/06/10 03:22:47;;;;;;;12.65;11.32;;;;;;;18.41;69.82;101321.78;5025234;28;20116;-84
2023/06/10 03:25:13;;;;;;;12.82;11.45;;;;;;;18.38;70.20;101324.78;5010829;28;20120;-85
2023/06/10 03:27:40;;;;;;;14.60;11.20;;;;;;;18.37;70.38;101325.75;5031407;28;20104;-85
2023/06/10 03:30:06;;;;;;;14.07;11.15;;;;;;;18.33;70.49;101321.72;5024097;28;20022;-85
2023/06/10 03:32:32;;;;;;;12.00;10.82;;;;;;;18.32;70.80;101328.03;5011110;28;20474;-85
2023/06/10 03:34:57;;;;;;;12.68;11.40;;;;;;;18.26;71.17;101334.81;5011507;28;20021;-85
2023/06/10 03:37:24;;;;;;;14.65;11.57;;;;;;;18.23;71.56;101328.97;5008288;28;20054;-85
2023/06/10 03:39:50;;;;;;;13.82;11.93;;;;;;;18.21;71.60;101347.75;5011194;28;20030;-86
2023/06/10 03:42:15;;;;;;;15.27;12.32;;;;;;;18.19;71.95;101344.41;5008259;28;20072;-86
2023/06/10 03:44:40;;;;;;;14.43;12.75;;;;;;;18.19;72.15;101348.91;5010141;28;20026;-85
2023/06/10 03:47:07;;;;;;;13.48;12.20;;;;;;;18.15;72.27;101351.88;5007470;28;20072;-85
2023/06/10 03:49:33;;;;;;;17.67;12.60;;;;;;;18.13;72.44;101345.84;5009689;28;20116;-86
2023/06/10 03:52:01;;;;;;;14.85;12.38;;;;;;;18.12;72.90;101344.19;5005572;28;20113;-86
2023/06/10 03:54:27;;;;;;;14.75;13.07;;;;;;;18.08;73.25;101356.13;4990438;28;20141;-85
2023/06/10 03:56:53;;;;;;;14.38;12.95;;;;;;;18.08;73.19;101342.81;5024120;28;20121;-85
2023/06/10 03:59:19;;;;;;;14.25;12.75;;;;;;;18.06;73.33;101344.78;5009025;28;20030;-85
2023/06/10 04:01:44;;;;;;;14.88;12.93;;;;;;;18.27;72.89;101351.66;5008973;28;20068;-86
2023/06/10 04:04:10;;;;;;;14.27;12.85;;;;;;;18.72;71.30;101338.25;5007558;28;20026;-85
2023/06/10 04:06:37;;;;;;;14.30;12.82;;;;;;;19.08;69.83;101341.72;5009649;28;20022;-85
2023/06/10 04:09:03;;;;;;;14.10;12.30;;;;;;;19.52;67.95;101346.97;5005876;28;20026;-84
2023/06/10 04:11:28;;;;;;;13.70;12.15;;;;;;;19.72;67.07;101345.78;5007555;28;20029;-84
2023/06/10 04:13:53;;;;;;;14.85;12.02;;;;;;;20.11;65.47;101337.22;5009266;28;20060;-85
2023/06/10 04:16:21;;;;;;;13.65;12.35;;;;;;;20.23;64.69;101343.91;5009619;28;20025;-85
2023/06/10 04:18:46;;;;;;;18.05;12.48;;;;;;;20.02;64.74;101339.88;5009888;28;20033;-84
2023/06/10 04:21:12;;;;;;;15.43;13.15;;;;;;;19.76;65.81;101344.44;5008727;28;20396;-84
2023/06/10 04:23:38;;;;;;;16.95;12.55;;;;;;;19.38;67.22;101349.25;5010199;28;20026;-83
2023/06/10 04:26:05;;;;;;;15.65;12.68;;;;;;;19.15;68.62;101352.59;5005695;28;20128;-85
2023/06/10 04:28:30;;;;;;;14.82;12.85;;;;;;;18.98;69.42;101356.97;4991236;28;20026;-83
2023/06/10 04:30:57;;;;;;;15.10;13.15;;;;;;;18.83;70.04;101353.22;4990438;28;20041;-84
2023/06/10 04:33:23;;;;;;;15.18;13.32;;;;;;;18.71;70.76;101361.41;4989565;28;20026;-85
2023/06/10 04:35:51;;;;;;;17.23;13.48;;;;;;;18.67;71.21;101365.38;5007447;28;20045;-85
2023/06/10 04:38:17;;;;;;;15.63;13.55;;;;;;;18.61;70.95;101363.31;5005206;28;20465;-85
2023/06/10 04:40:43;;;;;;;14.35;13.05;;;;;;;18.68;71.64;101364.41;5009753;28;20064;-85
2023/06/10 04:43:08;;;;;;;15.18;13.57;;;;;;;18.60;71.57;101363.47;5003141;28;20038;-85
2023/06/10 04:45:34;;;;;;;14.90;13.45;;;;;;;18.60;71.97;101368.78;5006793;28;20060;-84
2023/06/10 04:48:03;;;;;;;14.88;13.52;;;;;;;18.55;71.96;101371.91;5009262;28;20137;-85
2023/06/10 04:50:28;;;;;;;15.25;13.57;;;;;;;18.53;71.83;101360.56;5005897;28;20120;-85
2023/06/10 04:52:56;;;;;;;19.63;13.85;;;;;;;18.50;72.55;101368.03;5007429;28;20120;-84
2023/06/10 04:55:22;;;;;;;14.77;13.20;;;;;;;18.45;72.56;101361.34;5011692;28;20037;-85
2023/06/10 04:57:48;;;;;;;16.40;13.68;;;;;;;18.49;72.50;101372.53;5007930;28;20153;-84
2023/06/10 05:00:14;;;;;;;15.05;13.50;;;;;;;18.47;72.31;101374.50;5004988;28;20108;-84
2023/06/10 05:02:39;;;;;;;17.20;13.07;;;;;;;18.46;72.71;101367.50;5005433;28;21762;-83
2023/06/10 05:05:06;;;;;;;15.18;13.45;;;;;;;18.49;72.72;101367.19;5006783;28;20034;-85
2023/06/10 05:07:34;;;;;;;16.60;13.60;;;;;;;18.51;72.43;101375.88;5009110;28;20073;-84
2023/06/10 05:10:03;;;;;;;17.00;12.98;;;;;;;18.54;72.61;101372.06;5006120;28;21206;-84
2023/06/10 05:12:28;;;;;;;13.73;12.38;;;;;;;18.62;72.46;101373.00;5008885;28;20092;-85
2023/06/10 05:14:56;;;;;;;16.25;13.25;;;;;;;18.64;72.32;101362.19;5009264;28;20030;-85
2023/06/10 05:17:22;;;;;;;14.77;13.15;;;;;;;18.72;72.22;101372.91;5002886;28;20030;-85
2023/06/10 05:19:51;;;;;;;18.10;13.60;;;;;;;18.73;71.94;101369.25;5007332;28;20526;-84
2023/06/10 05:22:17;;;;;;;14.40;12.88;;;;;;;18.79;71.79;101372.16;5008829;28;20466;-85
2023/06/10 05:24:44;;;;;;;15.13;13.05;;;;;;;18.85;71.76;101359.22;5009841;28;20025;-86
2023/06/10 05:27:10;;;;;;;15.32;12.73;;;;;;;18.90;71.45;101370.25;5024774;28;20045;-84
2023/06/10 05:29:35;;;;;;;16.67;13.63;;;;;;;18.93;71.17;101364.63;5012427;28;20080;-86
2023/06/10 05:32:02;;;;;;;15.30;12.93;;;;;;;19.00;71.02;101365.66;5009133;28;20022;-85
2023/06/10 05:34:29;;;;;;;13.73;12.32;;;;;;;19.06;70.55;101370.38;4994651;28;20026;-85
2023/06/10 05:36:55;;;;;;;14.15;12.60;;;;;;;19.16;69.79;101363.09;4997790;28;20502;-85
2023/06/10 05:39:20;;;;;;;14.52;12.95;;;;;;;19.22;69.92;101365.16;5009434;28;20037;-84
2023/06/10 05:41:46;;;;;;;14.07;12.43;;;;;;;19.32;69.69;101365.88;5006977;28;20017;-86
2023/06/10 05:44:11;;;;;;;19.80;12.95;;;;;;;19.35;69.25;101365.56;4980134;28;20038;-87
2023/06/10 05:46:37;;;;;;;14.30;12.30;;;;;;;19.43;69.02;101372.78;5000740;28;20146;-86
2023/06/10 05:49:03;;;;;;;20.17;12.73;;;;;;;19.50;68.83;101364.97;4968623;28;20072;-87
2023/06/10 05:51:28;;;;;;;17.88;11.95;;;;;;;19.58;68.46;101365.88;5008931;28;20068;-86
2023/06/10 05:53:54;;;;;;;16.60;12.60;;;;;;;19.63;68.20;101370.75;5005909;28;20033;-87
2023/06/10 05:56:22;;;;;;;18.33;12.95;;;;;;;19.68;67.85;101373.78;5008524;28;20026;-87
2023/06/10 05:58:48;;;;;;;16.20;12.00;;;;;;;19.74;67.29;101375.81;5000988;28;20106;-85
2023/06/10 06:01:13;;;;;;;13.45;11.98;;;;;;;19.77;67.10;101375.50;5004072;28;20101;-88
2023/06/10 06:03:39;;;;;;;13.43;12.02;;;;;;;19.80;66.75;101375.16;5005740;28;20195;-85
2023/06/10 06:06:05;;;;;;;20.23;12.60;;;;;;;19.88;66.88;101377.88;5004548;28;20051;-87
2023/06/10 06:08:30;;;;;;;17.73;12.10;;;;;;;19.95;66.90;101376.22;4995031;28;20022;-86
2023/06/10 06:10:56;;;;;;;16.10;11.70;;;;;;;20.00;66.36;101376.56;4965893;28;20834;-85
2023/06/10 06:13:21;;;;;;;19.52;12.52;;;;;;;20.10;66.51;101375.63;5003964;28;20044;-87
2023/06/10 06:15:47;;;;;;;14.10;11.68;;;;;;;20.12;65.74;101384.31;5010581;28;20030;-86
2023/06/10 06:18:13;;;;;;;14.02;11.90;;;;;;;20.19;65.39;101374.63;5008222;28;20116;-86
2023/06/10 06:20:39;;;;;;;14.57;11.40;;;;;;;20.29;66.33;101376.16;5010638;28;20061;-87
2023/06/10 06:23:05;;;;;;;15.43;12.10;;;;;;;20.33;64.80;101368.66;5009062;28;20478;-87
2023/06/10 06:25:31;;;;;;;14.77;11.10;;;;;;;20.45;65.35;101375.41;5014938;28;20017;-87
2023/06/10 06:27:56;;;;;;;14.68;11.80;;;;;;;20.44;64.06;101384.44;5008911;28;20079;-86
2023/06/10 06:30:22;;;;;;;14.98;11.23;;;;;;;20.50;64.21;101373.06;5007421;28;20053;-75
2023/06/10 06:32:47;;;;;;;15.75;11.45;;;;;;;20.54;63.97;101379.75;5008884;28;20026;-76
2023/06/10 06:35:13;;;;;;;14.32;11.13;;;;;;;20.62;63.96;101376.25;5009902;28;20093;-76
2023/06/10 06:37:38;;;;;;;16.38;11.85;;;;;;;20.67;63.13;101383.78;5006605;28;20034;-76
2023/06/10 06:40:04;;;;;;;18.52;11.48;;;;;;;20.76;63.04;101380.09;5009564;28;20540;-76
2023/06/10 06:42:32;;;;;;;16.00;11.73;;;;;;;20.82;62.68;101387.47;5004581;28;20477;-76
2023/06/10 06:44:57;;;;;;;15.70;11.32;;;;;;;20.90;62.58;101390.97;4997265;28;20026;-75
2023/06/10 06:47:22;;;;;;;16.77;11.52;;;;;;;20.97;62.21;101383.13;5010585;28;20044;-75
2023/06/10 06:49:48;;;;;;;12.15;10.85;;;;;;;21.02;61.87;101383.44;5016875;28;20044;-77
2023/06/10 06:52:15;;;;;;;16.90;10.65;;;;;;;21.10;61.46;101379.91;5010494;28;20034;-77
2023/06/10 06:54:40;;;;;;;13.75;10.80;;;;;;;21.16;60.80;101382.75;5025656;28;20018;-77
2023/06/10 06:57:06;;;;;;;13.85;10.90;;;;;;;21.24;61.01;101384.63;5012711;28;20030;-77
2023/06/10 06:59:32;;;;;;;12.40;10.40;;;;;;;21.34;60.69;101382.59;5011436;28;20026;-77
2023/06/10 07:01:58;;;;;;;19.92;10.85;;;;;;;21.44;60.19;101387.75;5010369;28;20022;-87
2023/06/10 07:04:24;;;;;;;13.60;10.10;;;;;;;21.58;60.07;101392.41;4991458;28;20324;-85
2023/06/10 07:06:51;;;;;;;11.93;10.05;;;;;;;21.73;58.60;101398.72;5010905;28;20483;-84
2023/06/10 07:09:17;;;;;;;13.50;10.25;;;;;;;21.89;58.61;101395.16;5011427;28;20029;-86
2023/06/10 07:11:42;;;;;;;16.25;10.05;;;;;;;22.09;57.78;101399.13;5012560;28;20068;-85
2023/06/10 07:14:08;;;;;;;13.13;9.40;;;;;;;22.40;57.34;101388.38;5011488;28;20057;-85
2023/06/10 07:16:33;;;;;;;14.55;9.85;;;;;;;22.55;55.85;101404.53;5009358;28;20553;-83
2023/06/10 07:19:00;;;;;;;16.15;9.63;;;;;;;22.75;55.18;101394.16;5012526;28;20013;-86
2023/06/10 07:21:25;;;;;;;16.13;9.65;;;;;;;23.05;54.44;101400.50;5013228;28;20072;-86
2023/06/10 07:23:53;;;;;;;16.63;9.45;;;;;;;23.05;53.08;101398.63;4992075;28;20021;-86
2023/06/10 07:26:21;;;;;;;13.23;9.57;;;;;;;23.29;53.62;101391.38;5010648;28;20486;-88
2023/06/10 07:28:47;;;;;;;13.32;9.05;;;;;;;23.38;52.17;101401.03;5013980;28;20076;-87
2023/06/10 07:31:12;;;;;;;13.77;9.68;;;;;;;23.59;52.85;101392.25;5009013;28;20434;-86
2023/06/10 07:33:39;;;;;;;10.75;8.77;;;;;;;23.76;51.71;101393.75;5009710;28;20030;-88
2023/06/10 07:36:05;;;;;;;11.30;8.98;;;;;;;23.91;51.49;101399.09;5011780;28;20711;-87
2023/06/10 07:38:31;;;;;;;12.82;8.75;;;;;;;24.11;51.07;101397.50;5010531;28;20553;-87
2023/06/10 07:40:57;;;;;;;13.43;8.50;;;;;;;24.23;49.60;101401.38;5009926;28;20040;-87
2023/06/10 07:43:22;;;;;;;12.00;8.57;;;;;;;24.36;49.58;101395.31;5011493;28;20030;-87
2023/06/10 07:45:48;;;;;;;10.00;7.60;;;;;;;24.71;49.53;101392.78;5010727;28;20036;-88
2023/06/10 07:48:13;;;;;;;10.40;8.13;;;;;;;24.73;48.10;101396.09;5002063;28;20041;-85
2023/06/10 07:50:39;;;;;;;10.82;8.52;;;;;;;24.83;48.34;101402.03;4992417;28;20030;-85
2023/06/10 07:53:04;;;;;;;12.02;8.15;;;;;;;24.89;47.69;101402.09;5011014;28;20113;-86
2023/06/10 07:55:32;;;;;;;17.02;8.30;;;;;;;25.21;46.88;101399.84;5018443;28;20021;-86
2023/06/10 07:57:57;;;;;;;11.02;7.63;;;;;;;25.35;46.69;101401.63;5015926;28;20432;-87
2023/06/10 08:00:23;;;;;;;12.07;8.10;;;;;;;25.39;45.75;101405.59;5010426;28;20108;-87
2023/06/10 08:02:48;;;;;;;10.15;7.45;;;;;;;25.51;45.12;101398.63;5011323;28;20053;-86
2023/06/10 08:05:14;;;;;;;8.88;6.97;;;;;;;25.69;42.76;101397.31;5020468;28;20033;-87
2023/06/10 08:07:40;;;;;;;7.85;6.82;;;;;;;25.72;43.35;101392.34;5011364;28;20115;-87
2023/06/10 08:10:06;;;;;;;13.90;6.75;;;;;;;26.20;43.55;101390.47;5026580;28;20494;-87
2023/06/10 08:12:32;;;;;;;9.85;6.95;;;;;;;26.33;43.35;101405.91;5012964;28;20030;-86
2023/06/10 08:14:58;;;;;;;15.65;7.32;;;;;;;26.37;42.71;101400.94;5008246;28;20029;-85
2023/06/10 08:17:24;;;;;;;10.20;7.20;;;;;;;26.40;42.06;101405.91;5011015;28;20029;-85
2023/06/10 08:19:49;;;;;;;11.85;7.03;;;;;;;26.57;42.33;101398.28;5010732;28;20040;-87
2023/06/10 08:22:14;;;;;;;10.38;6.60;;;;;;;26.76;41.68;101392.91;5011996;28;20542;-86
2023/06/10 08:24:40;;;;;;;11.60;6.70;;;;;;;26.84;41.13;101406.22;5019931;28;20022;-86
2023/06/10 08:27:05;;;;;;;10.93;7.20;;;;;;;26.77;40.90;101397.25;5026306;28;20063;-87
2023/06/10 08:29:32;;;;;;;8.40;6.45;;;;;;;26.91;41.21;101398.13;5032847;28;20024;-86
2023/06/10 08:31:58;;;;;;;9.65;6.35;;;;;;;27.16;40.90;101392.94;5016956;28;20113;-86
2023/06/10 08:34:24;;;;;;;9.18;5.90;;;;;;;27.30;40.40;101389.19;5010769;28;20060;-86
2023/06/10 08:36:55;;;;;;;7.82;6.45;;;;;;;27.32;39.47;101395.22;5010841;28;20117;-85
2023/06/10 08:39:23;;;;;;;9.85;6.40;;;;;;;27.46;39.28;101393.31;5009468;28;20021;-86
2023/06/10 08:42:03;;;;;;;7.95;6.05;;;;;;;27.62;38.96;101394.75;5011270;28;20048;-87
2023/06/10 08:44:29;;;;;;;9.02;7.40;;;;;;;27.58;38.46;101391.59;5014128;28;20112;-84
2023/06/10 08:47:06;;;;;;;9.75;6.38;;;;;;;27.59;39.27;101397.84;5010434;28;20080;-86
2023/06/10 08:49:36;;;;;;;10.32;6.30;;;;;;;27.57;38.90;101397.22;5010804;28;20053;-84
2023/06/10 08:52:03;;;;;;;7.97;6.05;;;;;;;27.95;39.43;101400.88;5011742;28;20061;-86
2023/06/10 08:54:31;;;;;;;12.02;6.45;;;;;;;28.00;38.50;101390.25;5012232;28;20137;-86
2023/06/10 08:57:02;;;;;;;8.07;6.30;;;;;;;27.94;37.94;101401.09;5029157;28;20026;-84
2023/06/10 08:59:31;;;;;;;7.03;6.30;;;;;;;28.01;38.09;101400.00;5031680;28;20028;-87
2023/06/10 09:01:58;;;;;;;10.30;6.15;;;;;;;28.16;37.26;101386.22;5007461;28;20364;-86
2023/06/10 09:04:25;;;;;;;12.82;6.32;;;;;;;28.27;36.97;101396.38;5010777;28;20046;-86
2023/06/10 09:06:51;;;;;;;7.78;5.70;;;;;;;28.58;38.47;101383.91;5005131;28;20107;-88
2023/06/10 09:09:19;;;;;;;8.95;6.45;;;;;;;28.64;36.52;101389.28;5010270;28;20434;-85
2023/06/10 09:11:44;;;;;;;9.13;5.93;;;;;;;28.41;36.41;101394.44;5008451;28;20030;-86
2023/06/10 09:14:11;;;;;;;10.80;5.88;;;;;;;28.46;37.38;101391.91;5009111;28;20474;-86
2023/06/10 09:16:38;;;;;;;7.88;5.60;;;;;;;28.61;36.46;101387.03;5009255;28;20034;-87
2023/06/10 09:19:07;;;;;;;8.30;5.93;;;;;;;28.61;36.22;101384.31;5006564;28;20079;-88
2023/06/10 09:21:35;;;;;;;9.80;5.78;;;;;;;28.45;35.50;101384.03;5010412;28;20148;-86
2023/06/10 09:24:02;;;;;;;6.40;5.68;;;;;;;28.50;36.24;101386.91;5009208;28;20478;-88
2023/06/10 09:26:30;;;;;;;9.57;6.20;;;;;;;28.54;36.37;101388.94;5013573;28;20013;-88
2023/06/10 09:29:09;;;;;;;6.88;6.13;;;;;;;28.48;36.35;101395.25;5012089;28;20038;-81
2023/06/10 09:31:36;;;;;;;8.50;6.03;;;;;;;28.64;36.63;101386.56;5008659;28;20037;-80
2023/06/10 09:34:10;;;;;;;11.63;5.93;;;;;;;28.76;35.84;101388.56;5008108;28;20026;-79
2023/06/10 09:36:38;;;;;;;7.93;5.80;;;;;;;28.91;35.78;101383.72;5008564;28;20067;-81
2023/06/10 09:39:04;;;;;;;17.58;6.20;;;;;;;29.37;35.95;101372.41;5007827;28;20030;-82
2023/06/10 09:41:34;;;;;;;10.95;5.70;;;;;;;29.41;36.11;101380.94;5009507;28;20109;-79
2023/06/10 09:44:00;;;;;;;10.52;5.90;;;;;;;29.45;35.98;101379.47;5009796;28;20636;-88
2023/06/10 09:46:31;;;;;;;7.78;5.78;;;;;;;29.30;35.58;101391.47;5008970;28;20076;-88
2023/06/10 09:48:57;;;;;;;8.73;5.63;;;;;;;29.71;35.15;101379.16;5023042;28;20038;-88
2023/06/10 09:51:23;;;;;;;8.35;5.75;;;;;;;29.99;34.93;101383.19;5012467;28;20030;-87
2023/06/10 09:53:51;;;;;;;10.18;5.82;;;;;;;30.05;34.86;101377.72;5014102;28;20033;-87
2023/06/10 09:56:18;;;;;;;10.45;5.70;;;;;;;30.12;33.71;101378.47;5012307;28;20041;-88
2023/06/10 09:58:46;;;;;;;11.60;6.28;;;;;;;30.59;33.37;101373.19;5012538;28;20077;-86
2023/06/10 10:01:13;;;;;;;8.15;5.47;;;;;;;31.10;32.75;101375.28;5010369;28;20033;-86
2023/06/10 10:03:51;;;;;;;9.80;5.65;;;;;;;31.82;32.28;101368.72;5011797;28;20024;-85
2023/06/10 10:06:18;;;;;;;11.75;5.85;;;;;;;31.64;30.06;101362.38;5008819;28;20029;-86
2023/06/10 10:08:45;;;;;;;7.55;5.65;;;;;;;31.25;30.67;101363.13;5014569;28;20026;-84
2023/06/10 10:11:11;;;;;;;6.53;5.72;;;;;;;30.82;31.34;101375.97;5011194;28;20371;-86
2023/06/10 10:13:38;;;;;;;11.18;5.50;;;;;;;30.45;31.39;101366.31;5013925;28;20029;-85
2023/06/10 10:16:13;;;;;;;14.05;5.55;;;;;;;30.14;32.03;101361.94;5012412;28;20379;-88
2023/06/10 10:18:43;;;;;;;6.13;5.38;;;;;;;30.06;32.22;101359.56;5009335;28;20050;-85
2023/06/10 10:21:12;;;;;;;7.50;5.97;;;;;;;30.01;32.26;101362.06;4992933;28;20052;-87
2023/06/10 10:24:21;;;;;;;10.25;5.70;;;;;;;30.32;33.27;101353.72;5003007;28;20029;-89
2023/06/10 10:26:51;;;;;;;8.80;5.70;;;;;;;30.11;32.21;101363.25;5006142;28;20029;-89
2023/06/10 10:29:33;;;;;;;10.60;5.90;;;;;;;30.19;32.87;101360.19;5015484;28;20120;-90
2023/06/10 10:32:00;;;;;;;11.30;5.65;;;;;;;30.10;32.58;101358.03;5014071;28;20029;-88
2023/06/10 10:34:47;;;;;;;7.78;5.47;;;;;;;30.11;33.48;101351.56;5013084;28;20037;-88
2023/06/10 10:37:12;;;;;;;9.65;5.63;;;;;;;30.33;32.65;101349.13;5013429;28;20025;-88
2023/06/10 10:39:38;;;;;;;11.13;5.70;;;;;;;30.38;32.20;101362.84;5012319;28;20034;-84
2023/06/10 10:42:05;;;;;;;9.70;5.80;;;;;;;30.20;32.45;101355.59;5013414;28;20100;-86
2023/06/10 10:44:31;;;;;;;6.45;5.35;;;;;;;30.18;33.16;101347.69;5013206;28;20022;-89
2023/06/10 10:47:06;;;;;;;7.78;5.50;;;;;;;30.23;33.31;101355.13;5027673;28;20041;-86
2023/06/10 10:49:33;;;;;;;9.73;5.88;;;;;;;30.30;31.76;101355.84;5013654;28;20108;-89
2023/06/10 10:52:05;;;;;;;9.07;5.47;;;;;;;30.48;32.20;101352.25;5014553;28;20037;-88
2023/06/10 10:54:33;;;;;;;8.98;5.68;;;;;;;30.95;31.71;101349.63;5010818;28;20033;-88
2023/06/10 10:57:13;;;;;;;7.18;5.28;;;;;;;30.94;32.02;101346.09;5023507;28;20030;-88
2023/06/10 10:59:55;;;;;;;8.85;5.70;;;;;;;31.06;31.80;101344.19;5012406;28;20026;-87
2023/06/10 11:02:33;;;;;;;6.28;5.55;;;;;;;30.84;31.76;101340.41;5013983;28;20033;-88
2023/06/10 11:05:00;;;;;;;8.43;5.20;;;;;;;30.90;32.10;101344.06;5009263;28;20552;-85
2023/06/10 11:07:26;;;;;;;12.18;6.28;;;;;;;30.89;31.87;101337.81;5013224;28;20030;-86
2023/06/10 11:10:03;;;;;;;6.20;5.35;;;;;;;30.96;32.13;101335.81;5006921;28;20048;-88
2023/06/10 11:12:53;;;;;;;5.82;5.22;;;;;;;31.04;31.51;101334.63;4997958;28;20129;-87
2023/06/10 11:15:24;;;;;;;8.25;5.25;;;;;;;30.92;31.24;101337.34;5006868;28;20057;-88
2023/06/10 11:18:12;;;;;;;9.68;5.93;;;;;;;30.87;31.14;101337.22;5007472;28;20049;-84